sensor_id;sensor_type;location;lat;lon;timestamp;temperature;humidity
4693;DHT22;11710;48.024;16.296;2023-05-19T05:20:13;16.70;98.40
4693;DHT22;11710;48.024;16.296;2023-05-19T05:22:41;16.60;98.90
4693;DHT22;11710;48.024;16.296;2023-05-19T05:25:10;16.60;98.80
4693;DHT22;11710;48.024;16.296;2023-05-19T05:27:37;16.50;98.70
4693;DHT22;11710;48.024;16.296;2023-05-19T05:30:06;16.40;99.00
4693;DHT22;11710;48.024;16.296;2023-05-19T05:32:34;16.40;99.50
4693;DHT22;11710;48.024;16.296;2023-05-19T05:35:01;16.30;99.50
4693;DHT22;11710;48.024;16.296;2023-05-19T05:37:30;16.10;99.50
4693;DHT22;11710;48.024;16.296;2023-05-19T05:39:57;15.90;99.90
4693;DHT22;11710;48.024;16.296;2023-05-19T05:42:24;15.60;99.80
4693;DHT22;11710;48.024;16.296;2023-05-19T05:44:52;15.40;99.90
4693;DHT22;11710;48.024;16.296;2023-05-19T05:47:19;15.10;99.90
4693;DHT22;11710;48.024;16.296;2023-05-19T05:49:47;14.60;99.90
4693;DHT22;11710;48.024;16.296;2023-05-19T05:52:17;13.90;99.90
4693;DHT22;11710;48.024;16.296;2023-05-19T05:54:49;13.60;99.90
4693;DHT22;11710;48.024;16.296;2023-05-19T05:57:17;13.10;99.90
4693;DHT22;11710;48.024;16.296;2023-05-19T05:59:45;13.10;99.90
4693;DHT22;11710;48.024;16.296;2023-05-19T06:02:12;13.20;99.90
4693;DHT22;11710;48.024;16.296;2023-05-19T06:04:39;13.30;99.90
4693;DHT22;11710;48.024;16.296;2023-05-19T06:07:06;13.30;99.90
4693;DHT22;11710;48.024;16.296;2023-05-19T06:09:34;13.40;99.90
4693;DHT22;11710;48.024;16.296;2023-05-19T06:12:03;13.40;99.90
4693;DHT22;11710;48.024;16.296;2023-05-19T06:14:31;13.40;99.90
4693;DHT22;11710;48.024;16.296;2023-05-19T06:16:58;13.50;99.90
4693;DHT22;11710;48.024;16.296;2023-05-19T06:19:25;13.50;99.90
4693;DHT22;11710;48.024;16.296;2023-05-19T06:21:52;13.50;99.90
4693;DHT22;11710;48.024;16.296;2023-05-19T06:24:19;13.70;99.90
4693;DHT22;11710;48.024;16.296;2023-05-19T06:26:47;13.80;99.90
4693;DHT22;11710;48.024;16.296;2023-05-19T06:29:16;13.90;99.90
4693;DHT22;11710;48.024;16.296;2023-05-19T06:31:43;14.00;99.90
4693;DHT22;11710;48.024;16.296;2023-05-19T06:34:11;14.20;99.90
4693;DHT22;11710;48.024;16.296;2023-05-19T06:36:42;14.30;99.90
4693;DHT22;11710;48.024;16.296;2023-05-19T06:39:09;14.40;99.90
4693;DHT22;11710;48.024;16.296;2023-05-19T06:41:36;14.50;99.90
4693;DHT22;11710;48.024;16.296;2023-05-19T06:44:06;14.40;99.90
4693;DHT22;11710;48.024;16.296;2023-05-19T06:46:35;14.70;99.90
4693;DHT22;11710;48.024;16.296;2023-05-19T06:49:02;15.10;99.90
4693;DHT22;11710;48.024;16.296;2023-05-19T06:51:29;15.30;99.90
4693;DHT22;11710;48.024;16.296;2023-05-19T06:53:57;15.20;99.90
4693;DHT22;11710;48.024;16.296;2023-05-19T06:56:24;15.40;99.90
4693;DHT22;11710;48.024;16.296;2023-05-19T06:58:51;15.70;99.90
4693;DHT22;11710;48.024;16.296;2023-05-19T07:01:18;15.80;99.90
4693;DHT22;11710;48.024;16.296;2023-05-19T07:03:47;15.70;99.90
4693;DHT22;11710;48.024;16.296;2023-05-19T07:06:14;15.60;99.90
4693;DHT22;11710;48.024;16.296;2023-05-19T07:08:41;15.80;99.90
4693;DHT22;11710;48.024;16.296;2023-05-19T07:11:09;16.00;99.90
4693;DHT22;11710;48.024;16.296;2023-05-19T07:13:37;16.20;99.90
4693;DHT22;11710;48.024;16.296;2023-05-19T07:16:05;16.30;99.90
4693;DHT22;11710;48.024;16.296;2023-05-19T07:18:35;16.50;99.90
4693;DHT22;11710;48.024;16.296;2023-05-19T07:21:04;16.60;99.90
4693;DHT22;11710;48.024;16.296;2023-05-19T07:23:31;16.90;99.90
4693;DHT22;11710;48.024;16.296;2023-05-19T07:25:59;17.20;99.90
4693;DHT22;11710;48.024;16.296;2023-05-19T07:28:26;17.70;99.90
4693;DHT22;11710;48.024;16.296;2023-05-19T07:30:54;18.10;99.90
4693;DHT22;11710;48.024;16.296;2023-05-19T07:33:21;18.50;99.90
4693;DHT22;11710;48.024;16.296;2023-05-19T07:35:48;18.50;99.70
4693;DHT22;11710;48.024;16.296;2023-05-19T07:38:17;18.30;99.60
4693;DHT22;11710;48.024;16.296;2023-05-19T07:40:44;17.80;99.70
4693;DHT22;11710;48.024;16.296;2023-05-19T07:43:11;17.50;99.90
4693;DHT22;11710;48.024;16.296;2023-05-19T07:45:39;17.40;99.90
4693;DHT22;11710;48.024;16.296;2023-05-19T07:48:06;17.50;99.90
4693;DHT22;11710;48.024;16.296;2023-05-19T07:50:33;17.60;99.90
4693;DHT22;11710;48.024;16.296;2023-05-19T07:53:00;17.50;99.90
4693;DHT22;11710;48.024;16.296;2023-05-19T07:55:29;17.20;99.90
4693;DHT22;11710;48.024;16.296;2023-05-19T07:57:56;17.10;99.90
4693;DHT22;11710;48.024;16.296;2023-05-19T08:00:23;16.80;99.90
4693;DHT22;11710;48.024;16.296;2023-05-19T08:02:51;16.80;99.90
4693;DHT22;11710;48.024;16.296;2023-05-19T08:05:18;16.60;99.90
4693;DHT22;11710;48.024;16.296;2023-05-19T08:07:45;16.50;99.90
4693;DHT22;11710;48.024;16.296;2023-05-19T08:10:13;16.60;99.90
4693;DHT22;11710;48.024;16.296;2023-05-19T08:12:41;16.70;99.90
4693;DHT22;11710;48.024;16.296;2023-05-19T08:15:09;16.70;99.90
4693;DHT22;11710;48.024;16.296;2023-05-19T08:17:37;16.80;99.90
4693;DHT22;11710;48.024;16.296;2023-05-19T08:20:05;16.60;99.90
4693;DHT22;11710;48.024;16.296;2023-05-19T08:22:35;16.60;99.90
4693;DHT22;11710;48.024;16.296;2023-05-19T08:25:02;16.60;99.90
4693;DHT22;11710;48.024;16.296;2023-05-19T08:27:30;16.60;99.90
4693;DHT22;11710;48.024;16.296;2023-05-19T08:29:59;16.50;99.90
4693;DHT22;11710;48.024;16.296;2023-05-19T08:32:27;16.20;99.90
4693;DHT22;11710;48.024;16.296;2023-05-19T08:34:54;16.20;99.90
4693;DHT22;11710;48.024;16.296;2023-05-19T08:37:21;16.40;99.90
4693;DHT22;11710;48.024;16.296;2023-05-19T08:39:48;16.60;99.90
4693;DHT22;11710;48.024;16.296;2023-05-19T08:42:16;16.50;99.90
4693;DHT22;11710;48.024;16.296;2023-05-19T08:44:43;16.70;99.90
4693;DHT22;11710;48.024;16.296;2023-05-19T08:47:13;16.60;99.90
4693;DHT22;11710;48.024;16.296;2023-05-19T08:49:43;16.70;99.90
4693;DHT22;11710;48.024;16.296;2023-05-19T08:52:21;17.00;99.90
4693;DHT22;11710;48.024;16.296;2023-05-19T08:54:54;17.40;99.90
4693;DHT22;11710;48.024;16.296;2023-05-19T08:57:26;17.70;99.90
4693;DHT22;11710;48.024;16.296;2023-05-19T08:59:54;17.70;99.90
4693;DHT22;11710;48.024;16.296;2023-05-19T09:02:23;18.10;99.90
4693;DHT22;11710;48.024;16.296;2023-05-19T09:04:51;18.20;99.90
4693;DHT22;11710;48.024;16.296;2023-05-19T09:07:19;18.10;99.90
4693;DHT22;11710;48.024;16.296;2023-05-19T09:09:48;18.20;99.50
4693;DHT22;11710;48.024;16.296;2023-05-19T09:12:15;18.30;99.80
4693;DHT22;11710;48.024;16.296;2023-05-19T09:14:43;18.30;99.90
4693;DHT22;11710;48.024;16.296;2023-05-19T09:17:11;18.20;99.80
4693;DHT22;11710;48.024;16.296;2023-05-19T09:19:43;18.00;99.90
4693;DHT22;11710;48.024;16.296;2023-05-19T09:22:14;18.00;99.90
4693;DHT22;11710;48.024;16.296;2023-05-19T09:24:44;17.70;99.90
4693;DHT22;11710;48.024;16.296;2023-05-19T09:27:14;17.60;99.90
4693;DHT22;11710;48.024;16.296;2023-05-19T09:29:42;17.80;99.90
4693;DHT22;11710;48.024;16.296;2023-05-19T09:32:09;18.00;99.90
4693;DHT22;11710;48.024;16.296;2023-05-19T09:34:40;17.90;99.90
4693;DHT22;11710;48.024;16.296;2023-05-19T09:37:12;18.00;99.90
4693;DHT22;11710;48.024;16.296;2023-05-19T09:39:39;18.00;99.90
4693;DHT22;11710;48.024;16.296;2023-05-19T09:42:06;18.10;99.90
4693;DHT22;11710;48.024;16.296;2023-05-19T09:44:34;18.00;99.90
4693;DHT22;11710;48.024;16.296;2023-05-19T09:47:02;18.30;99.90
4693;DHT22;11710;48.024;16.296;2023-05-19T09:49:29;18.60;99.90
4693;DHT22;11710;48.024;16.296;2023-05-19T09:51:58;18.80;99.90
4693;DHT22;11710;48.024;16.296;2023-05-19T09:54:29;19.10;99.80
4693;DHT22;11710;48.024;16.296;2023-05-19T09:56:57;18.90;99.90
4693;DHT22;11710;48.024;16.296;2023-05-19T09:59:25;19.10;99.90
4693;DHT22;11710;48.024;16.296;2023-05-19T10:01:54;19.20;99.90
4693;DHT22;11710;48.024;16.296;2023-05-19T10:04:22;19.00;99.40
4693;DHT22;11710;48.024;16.296;2023-05-19T10:06:50;18.90;99.90
4693;DHT22;11710;48.024;16.296;2023-05-19T10:09:21;18.90;99.90
4693;DHT22;11710;48.024;16.296;2023-05-19T10:11:53;18.90;99.90
4693;DHT22;11710;48.024;16.296;2023-05-19T10:14:22;19.10;99.90
4693;DHT22;11710;48.024;16.296;2023-05-19T10:16:51;19.30;99.70
4693;DHT22;11710;48.024;16.296;2023-05-19T10:19:21;19.80;99.90
4693;DHT22;11710;48.024;16.296;2023-05-19T10:21:49;19.90;99.90
4693;DHT22;11710;48.024;16.296;2023-05-19T10:24:17;19.70;99.90
4693;DHT22;11710;48.024;16.296;2023-05-19T10:26:46;19.20;99.80
4693;DHT22;11710;48.024;16.296;2023-05-19T10:29:23;19.10;99.90
4693;DHT22;11710;48.024;16.296;2023-05-19T10:31:54;18.90;99.90
4693;DHT22;11710;48.024;16.296;2023-05-19T10:34:46;18.80;99.90
4693;DHT22;11710;48.024;16.296;2023-05-19T10:37:20;18.90;99.90
4693;DHT22;11710;48.024;16.296;2023-05-19T10:39:52;18.80;99.90
4693;DHT22;11710;48.024;16.296;2023-05-19T10:42:31;18.70;99.90
4693;DHT22;11710;48.024;16.296;2023-05-19T10:45:08;18.70;99.90
4693;DHT22;11710;48.024;16.296;2023-05-19T10:47:39;18.70;99.90
4693;DHT22;11710;48.024;16.296;2023-05-19T10:50:07;18.60;99.90
4693;DHT22;11710;48.024;16.296;2023-05-19T10:52:36;18.80;99.90
4693;DHT22;11710;48.024;16.296;2023-05-19T10:55:07;18.70;99.90
4693;DHT22;11710;48.024;16.296;2023-05-19T10:57:35;18.70;99.90
4693;DHT22;11710;48.024;16.296;2023-05-19T11:00:25;19.00;99.90
4693;DHT22;11710;48.024;16.296;2023-05-19T11:02:53;19.00;99.90
4693;DHT22;11710;48.024;16.296;2023-05-19T11:05:28;19.30;99.90
4693;DHT22;11710;48.024;16.296;2023-05-19T11:07:57;19.60;99.90
4693;DHT22;11710;48.024;16.296;2023-05-19T11:10:27;19.50;99.90
4693;DHT22;11710;48.024;16.296;2023-05-19T11:12:56;19.30;99.90
4693;DHT22;11710;48.024;16.296;2023-05-19T11:15:26;19.00;99.90
4693;DHT22;11710;48.024;16.296;2023-05-19T11:17:54;19.20;99.90
4693;DHT22;11710;48.024;16.296;2023-05-19T11:20:25;19.30;99.90
4693;DHT22;11710;48.024;16.296;2023-05-19T11:23:03;19.30;99.90
4693;DHT22;11710;48.024;16.296;2023-05-19T11:25:41;19.10;99.90
4693;DHT22;11710;48.024;16.296;2023-05-19T11:28:10;19.30;99.90
4693;DHT22;11710;48.024;16.296;2023-05-19T11:30:44;19.50;99.90
4693;DHT22;11710;48.024;16.296;2023-05-19T11:33:12;19.60;99.90
4693;DHT22;11710;48.024;16.296;2023-05-19T11:35:39;19.80;99.90
4693;DHT22;11710;48.024;16.296;2023-05-19T11:38:07;19.80;99.90
4693;DHT22;11710;48.024;16.296;2023-05-19T11:40:36;19.90;99.90
4693;DHT22;11710;48.024;16.296;2023-05-19T11:43:04;19.80;99.90
4693;DHT22;11710;48.024;16.296;2023-05-19T11:45:31;19.50;99.90
4693;DHT22;11710;48.024;16.296;2023-05-19T11:48:01;19.50;99.90
4693;DHT22;11710;48.024;16.296;2023-05-19T11:50:30;19.60;99.90
4693;DHT22;11710;48.024;16.296;2023-05-19T11:52:59;19.60;99.90
4693;DHT22;11710;48.024;16.296;2023-05-19T11:55:27;19.80;99.90
4693;DHT22;11710;48.024;16.296;2023-05-19T11:57:57;19.80;99.90
4693;DHT22;11710;48.024;16.296;2023-05-19T12:00:25;19.90;99.90
4693;DHT22;11710;48.024;16.296;2023-05-19T12:02:53;19.70;99.90
4693;DHT22;11710;48.024;16.296;2023-05-19T12:05:23;19.70;99.90
4693;DHT22;11710;48.024;16.296;2023-05-19T12:07:51;19.90;99.90
4693;DHT22;11710;48.024;16.296;2023-05-19T12:10:21;19.70;99.90
4693;DHT22;11710;48.024;16.296;2023-05-19T12:12:50;19.90;99.90
4693;DHT22;11710;48.024;16.296;2023-05-19T12:15:18;20.20;99.90
4693;DHT22;11710;48.024;16.296;2023-05-19T12:17:48;20.10;99.90
4693;DHT22;11710;48.024;16.296;2023-05-19T12:20:16;19.90;99.90
4693;DHT22;11710;48.024;16.296;2023-05-19T12:22:46;19.70;99.90
4693;DHT22;11710;48.024;16.296;2023-05-19T12:25:14;19.70;99.90
4693;DHT22;11710;48.024;16.296;2023-05-19T12:27:42;19.70;99.90
4693;DHT22;11710;48.024;16.296;2023-05-19T12:30:11;19.60;99.90
4693;DHT22;11710;48.024;16.296;2023-05-19T12:32:38;19.70;99.90
4693;DHT22;11710;48.024;16.296;2023-05-19T12:35:06;19.90;99.90
4693;DHT22;11710;48.024;16.296;2023-05-19T12:37:33;20.10;99.90
4693;DHT22;11710;48.024;16.296;2023-05-19T12:40:05;20.20;99.90
4693;DHT22;11710;48.024;16.296;2023-05-19T12:42:32;20.50;99.90
4693;DHT22;11710;48.024;16.296;2023-05-19T12:45:02;20.70;99.90
4693;DHT22;11710;48.024;16.296;2023-05-19T12:47:31;20.50;99.90
4693;DHT22;11710;48.024;16.296;2023-05-19T12:50:04;20.50;99.90
4693;DHT22;11710;48.024;16.296;2023-05-19T12:52:39;20.60;99.90
4693;DHT22;11710;48.024;16.296;2023-05-19T12:55:09;20.50;99.90
4693;DHT22;11710;48.024;16.296;2023-05-19T12:57:38;20.30;99.90
4693;DHT22;11710;48.024;16.296;2023-05-19T13:00:07;20.30;99.90
4693;DHT22;11710;48.024;16.296;2023-05-19T13:02:55;20.40;99.90
4693;DHT22;11710;48.024;16.296;2023-05-19T13:05:23;20.20;99.90
4693;DHT22;11710;48.024;16.296;2023-05-19T13:07:57;20.20;99.90
4693;DHT22;11710;48.024;16.296;2023-05-19T13:10:26;20.40;99.90
4693;DHT22;11710;48.024;16.296;2023-05-19T13:12:54;20.30;99.90
4693;DHT22;11710;48.024;16.296;2023-05-19T13:15:22;20.30;99.90
4693;DHT22;11710;48.024;16.296;2023-05-19T13:17:50;20.30;99.90
4693;DHT22;11710;48.024;16.296;2023-05-19T13:20:18;20.20;99.90
4693;DHT22;11710;48.024;16.296;2023-05-19T13:22:46;20.20;99.90
4693;DHT22;11710;48.024;16.296;2023-05-19T13:25:13;20.20;99.90
4693;DHT22;11710;48.024;16.296;2023-05-19T13:27:43;20.30;99.90
4693;DHT22;11710;48.024;16.296;2023-05-19T13:30:11;20.30;99.90
4693;DHT22;11710;48.024;16.296;2023-05-19T13:32:38;20.40;99.90
4693;DHT22;11710;48.024;16.296;2023-05-19T13:35:06;20.40;99.90
4693;DHT22;11710;48.024;16.296;2023-05-19T13:37:34;20.30;99.90
4693;DHT22;11710;48.024;16.296;2023-05-19T13:40:02;20.30;99.90
4693;DHT22;11710;48.024;16.296;2023-05-19T13:42:31;20.50;99.90
4693;DHT22;11710;48.024;16.296;2023-05-19T13:45:00;20.40;99.90
4693;DHT22;11710;48.024;16.296;2023-05-19T13:47:27;20.50;99.90
4693;DHT22;11710;48.024;16.296;2023-05-19T13:49:55;20.40;99.90
4693;DHT22;11710;48.024;16.296;2023-05-19T13:52:22;20.50;99.90
4693;DHT22;11710;48.024;16.296;2023-05-19T13:54:49;20.60;99.90
4693;DHT22;11710;48.024;16.296;2023-05-19T13:57:19;20.80;99.90
4693;DHT22;11710;48.024;16.296;2023-05-19T13:59:47;20.70;99.90
4693;DHT22;11710;48.024;16.296;2023-05-19T14:02:15;20.50;99.90
4693;DHT22;11710;48.024;16.296;2023-05-19T14:04:43;20.40;99.90
4693;DHT22;11710;48.024;16.296;2023-05-19T14:07:11;20.30;99.90
4693;DHT22;11710;48.024;16.296;2023-05-19T14:09:38;20.20;99.90
4693;DHT22;11710;48.024;16.296;2023-05-19T14:12:05;20.10;99.90
4693;DHT22;11710;48.024;16.296;2023-05-19T14:14:35;20.00;99.90
4693;DHT22;11710;48.024;16.296;2023-05-19T14:17:02;19.90;99.90
4693;DHT22;11710;48.024;16.296;2023-05-19T14:19:30;19.80;99.90
4693;DHT22;11710;48.024;16.296;2023-05-19T14:21:58;19.60;99.90
4693;DHT22;11710;48.024;16.296;2023-05-19T14:24:25;19.50;99.90
4693;DHT22;11710;48.024;16.296;2023-05-19T14:26:52;19.50;99.90
4693;DHT22;11710;48.024;16.296;2023-05-19T14:29:20;19.40;99.90
4693;DHT22;11710;48.024;16.296;2023-05-19T14:31:47;19.30;99.90
4693;DHT22;11710;48.024;16.296;2023-05-19T14:34:14;19.30;99.90
4693;DHT22;11710;48.024;16.296;2023-05-19T14:36:47;19.40;99.90
4693;DHT22;11710;48.024;16.296;2023-05-19T14:39:15;19.50;99.90
4693;DHT22;11710;48.024;16.296;2023-05-19T14:41:42;19.60;99.90
4693;DHT22;11710;48.024;16.296;2023-05-19T14:44:11;19.60;99.90
4693;DHT22;11710;48.024;16.296;2023-05-19T14:46:43;19.60;99.90
4693;DHT22;11710;48.024;16.296;2023-05-19T14:49:10;19.60;99.90
4693;DHT22;11710;48.024;16.296;2023-05-19T14:51:38;19.60;99.90
4693;DHT22;11710;48.024;16.296;2023-05-19T14:54:06;19.60;99.90
4693;DHT22;11710;48.024;16.296;2023-05-19T14:56:35;19.60;99.90
4693;DHT22;11710;48.024;16.296;2023-05-19T14:59:03;19.70;99.90
4693;DHT22;11710;48.024;16.296;2023-05-19T15:01:32;19.70;99.90
4693;DHT22;11710;48.024;16.296;2023-05-19T15:04:00;19.60;99.90
4693;DHT22;11710;48.024;16.296;2023-05-19T15:06:28;19.60;99.90
4693;DHT22;11710;48.024;16.296;2023-05-19T15:08:57;19.60;99.90
4693;DHT22;11710;48.024;16.296;2023-05-19T15:11:27;19.70;99.90
4693;DHT22;11710;48.024;16.296;2023-05-19T15:13:55;19.80;99.90
4693;DHT22;11710;48.024;16.296;2023-05-19T15:16:22;19.90;99.90
4693;DHT22;11710;48.024;16.296;2023-05-19T15:18:49;19.90;99.90
4693;DHT22;11710;48.024;16.296;2023-05-19T15:21:18;19.90;99.90
4693;DHT22;11710;48.024;16.296;2023-05-19T15:23:45;19.80;99.90
4693;DHT22;11710;48.024;16.296;2023-05-19T15:26:13;19.70;99.90
4693;DHT22;11710;48.024;16.296;2023-05-19T15:28:42;19.70;99.90
4693;DHT22;11710;48.024;16.296;2023-05-19T15:31:09;19.70;99.90
4693;DHT22;11710;48.024;16.296;2023-05-19T15:33:37;19.70;99.90
4693;DHT22;11710;48.024;16.296;2023-05-19T15:36:05;19.70;99.90
4693;DHT22;11710;48.024;16.296;2023-05-19T15:38:34;19.70;99.90
4693;DHT22;11710;48.024;16.296;2023-05-19T15:41:05;19.60;99.90
4693;DHT22;11710;48.024;16.296;2023-05-19T15:43:34;19.50;99.90
4693;DHT22;11710;48.024;16.296;2023-05-19T15:46:03;19.50;99.90
4693;DHT22;11710;48.024;16.296;2023-05-19T15:48:31;19.40;99.90
4693;DHT22;11710;48.024;16.296;2023-05-19T15:50:59;19.40;99.90
4693;DHT22;11710;48.024;16.296;2023-05-19T15:53:26;19.40;99.90
4693;DHT22;11710;48.024;16.296;2023-05-19T15:55:53;19.40;99.90
4693;DHT22;11710;48.024;16.296;2023-05-19T15:58:22;19.30;99.90
4693;DHT22;11710;48.024;16.296;2023-05-19T16:00:49;19.20;99.90
4693;DHT22;11710;48.024;16.296;2023-05-19T16:03:18;19.10;99.90
4693;DHT22;11710;48.024;16.296;2023-05-19T16:05:47;19.00;99.90
4693;DHT22;11710;48.024;16.296;2023-05-19T16:08:14;18.90;99.90
4693;DHT22;11710;48.024;16.296;2023-05-19T16:10:41;18.80;99.90
4693;DHT22;11710;48.024;16.296;2023-05-19T16:13:08;18.80;99.90
4693;DHT22;11710;48.024;16.296;2023-05-19T16:15:36;18.70;99.90
4693;DHT22;11710;48.024;16.296;2023-05-19T16:18:03;18.60;99.90
4693;DHT22;11710;48.024;16.296;2023-05-19T16:20:32;18.60;99.90
4693;DHT22;11710;48.024;16.296;2023-05-19T16:22:59;18.60;99.90
4693;DHT22;11710;48.024;16.296;2023-05-19T16:25:26;18.60;99.90
4693;DHT22;11710;48.024;16.296;2023-05-19T16:27:54;18.60;99.90
4693;DHT22;11710;48.024;16.296;2023-05-19T16:30:21;18.60;99.90
4693;DHT22;11710;48.024;16.296;2023-05-19T16:32:51;18.60;99.90
4693;DHT22;11710;48.024;16.296;2023-05-19T16:35:19;18.60;99.90
4693;DHT22;11710;48.024;16.296;2023-05-19T16:37:47;18.60;99.90
4693;DHT22;11710;48.024;16.296;2023-05-19T16:40:15;18.60;99.90
4693;DHT22;11710;48.024;16.296;2023-05-19T16:42:42;18.60;99.90
4693;DHT22;11710;48.024;16.296;2023-05-19T16:45:09;18.60;99.90
4693;DHT22;11710;48.024;16.296;2023-05-19T16:47:37;18.70;99.90
4693;DHT22;11710;48.024;16.296;2023-05-19T16:50:05;18.70;99.90
4693;DHT22;11710;48.024;16.296;2023-05-19T16:52:32;18.70;99.90
4693;DHT22;11710;48.024;16.296;2023-05-19T16:55:01;18.80;99.90
4693;DHT22;11710;48.024;16.296;2023-05-19T16:57:28;18.80;99.90
4693;DHT22;11710;48.024;16.296;2023-05-19T16:59:56;18.80;99.90
4693;DHT22;11710;48.024;16.296;2023-05-19T17:02:27;18.80;99.90
4693;DHT22;11710;48.024;16.296;2023-05-19T17:05:00;18.80;99.90
4693;DHT22;11710;48.024;16.296;2023-05-19T17:07:30;18.70;99.90
4693;DHT22;11710;48.024;16.296;2023-05-19T17:09:58;18.70;99.90
4693;DHT22;11710;48.024;16.296;2023-05-19T17:12:27;18.70;99.90
4693;DHT22;11710;48.024;16.296;2023-05-19T17:14:55;18.80;99.90
4693;DHT22;11710;48.024;16.296;2023-05-19T17:17:22;18.80;99.90
4693;DHT22;11710;48.024;16.296;2023-05-19T17:19:49;18.80;99.90
4693;DHT22;11710;48.024;16.296;2023-05-19T17:22:16;18.90;99.90
4693;DHT22;11710;48.024;16.296;2023-05-19T17:24:44;18.80;99.90
4693;DHT22;11710;48.024;16.296;2023-05-19T17:27:11;18.90;99.90
4693;DHT22;11710;48.024;16.296;2023-05-19T17:29:41;18.90;99.90
4693;DHT22;11710;48.024;16.296;2023-05-19T17:32:08;18.90;99.90
4693;DHT22;11710;48.024;16.296;2023-05-19T17:34:35;18.80;99.90
4693;DHT22;11710;48.024;16.296;2023-05-19T17:37:04;18.80;99.90
4693;DHT22;11710;48.024;16.296;2023-05-19T17:39:31;18.80;99.90
4693;DHT22;11710;48.024;16.296;2023-05-19T17:41:58;18.80;99.90
4693;DHT22;11710;48.024;16.296;2023-05-19T17:44:26;18.80;99.90
4693;DHT22;11710;48.024;16.296;2023-05-19T17:46:58;18.80;99.90
4693;DHT22;11710;48.024;16.296;2023-05-19T17:49:27;18.80;99.90
4693;DHT22;11710;48.024;16.296;2023-05-19T17:51:54;18.70;99.90
4693;DHT22;11710;48.024;16.296;2023-05-19T17:54:22;18.70;99.90
4693;DHT22;11710;48.024;16.296;2023-05-19T17:56:52;18.60;99.90
4693;DHT22;11710;48.024;16.296;2023-05-19T17:59:21;18.60;99.90
4693;DHT22;11710;48.024;16.296;2023-05-19T18:01:49;18.50;99.90
4693;DHT22;11710;48.024;16.296;2023-05-19T18:04:19;18.40;99.90
4693;DHT22;11710;48.024;16.296;2023-05-19T18:06:46;18.30;99.90
4693;DHT22;11710;48.024;16.296;2023-05-19T18:09:18;18.20;99.90
4693;DHT22;11710;48.024;16.296;2023-05-19T18:11:45;18.10;99.90
4693;DHT22;11710;48.024;16.296;2023-05-19T18:14:12;17.90;99.90
4693;DHT22;11710;48.024;16.296;2023-05-19T18:16:39;17.90;99.90
4693;DHT22;11710;48.024;16.296;2023-05-19T18:19:07;17.90;99.90
4693;DHT22;11710;48.024;16.296;2023-05-19T18:21:35;17.80;99.90
4693;DHT22;11710;48.024;16.296;2023-05-19T18:24:04;17.80;99.90
4693;DHT22;11710;48.024;16.296;2023-05-19T18:26:31;17.70;99.90
4693;DHT22;11710;48.024;16.296;2023-05-19T18:28:59;17.70;99.90
4693;DHT22;11710;48.024;16.296;2023-05-19T18:31:29;17.60;99.90
4693;DHT22;11710;48.024;16.296;2023-05-19T18:33:56;17.50;99.90
4693;DHT22;11710;48.024;16.296;2023-05-19T18:36:23;17.40;99.90
4693;DHT22;11710;48.024;16.296;2023-05-19T18:38:52;17.30;99.90
4693;DHT22;11710;48.024;16.296;2023-05-19T18:41:19;17.30;99.90
4693;DHT22;11710;48.024;16.296;2023-05-19T18:43:47;17.20;99.90
4693;DHT22;11710;48.024;16.296;2023-05-19T18:46:16;16.90;99.90
4693;DHT22;11710;48.024;16.296;2023-05-19T18:48:43;16.70;99.90
4693;DHT22;11710;48.024;16.296;2023-05-19T18:51:10;16.50;99.90
4693;DHT22;11710;48.024;16.296;2023-05-19T18:53:40;16.40;99.90
4693;DHT22;11710;48.024;16.296;2023-05-19T18:56:10;16.30;99.90
4693;DHT22;11710;48.024;16.296;2023-05-19T18:58:37;16.30;99.90
4693;DHT22;11710;48.024;16.296;2023-05-19T19:01:04;16.20;99.90
4693;DHT22;11710;48.024;16.296;2023-05-19T19:03:31;16.10;99.90
4693;DHT22;11710;48.024;16.296;2023-05-19T19:05:59;16.10;99.90
4693;DHT22;11710;48.024;16.296;2023-05-19T19:08:26;16.00;99.90
4693;DHT22;11710;48.024;16.296;2023-05-19T19:10:53;16.00;99.90
4693;DHT22;11710;48.024;16.296;2023-05-19T19:13:27;15.90;99.90
4693;DHT22;11710;48.024;16.296;2023-05-19T19:15:54;15.90;99.90
4693;DHT22;11710;48.024;16.296;2023-05-19T19:18:21;15.80;99.90
4693;DHT22;11710;48.024;16.296;2023-05-19T19:20:50;15.80;99.90
4693;DHT22;11710;48.024;16.296;2023-05-19T19:23:17;15.70;99.90
4693;DHT22;11710;48.024;16.296;2023-05-19T19:25:45;15.70;99.90
4693;DHT22;11710;48.024;16.296;2023-05-19T19:28:13;15.60;99.90
4693;DHT22;11710;48.024;16.296;2023-05-19T19:30:44;15.50;99.90
4693;DHT22;11710;48.024;16.296;2023-05-19T19:33:11;15.50;99.90
4693;DHT22;11710;48.024;16.296;2023-05-19T19:35:38;15.50;99.90
4693;DHT22;11710;48.024;16.296;2023-05-19T19:38:06;15.50;99.90
4693;DHT22;11710;48.024;16.296;2023-05-19T19:40:33;15.50;99.90
4693;DHT22;11710;48.024;16.296;2023-05-19T19:43:00;15.50;99.90
4693;DHT22;11710;48.024;16.296;2023-05-19T19:45:27;15.50;99.90
4693;DHT22;11710;48.024;16.296;2023-05-19T19:47:56;15.50;99.90
4693;DHT22;11710;48.024;16.296;2023-05-19T19:50:23;15.60;99.90
